createdAt,value
2023-03-28T00:04:41.910Z,67.63
2023-03-28T00:09:36.046Z,67.73
2023-03-28T00:14:29.815Z,67.37
2023-03-28T00:19:26.802Z,68.01
2023-03-28T00:24:17.379Z,67.83
2023-03-28T00:29:09.672Z,67.79
2023-03-28T00:34:11.683Z,69.40
2023-03-28T00:39:11.779Z,68.63
2023-03-28T00:44:03.218Z,68.37
2023-03-28T00:49:00.025Z,69.72
2023-03-28T00:53:56.390Z,70.13
2023-03-28T00:58:50.540Z,69.71
2023-03-28T01:03:47.826Z,69.05
2023-03-28T01:08:46.071Z,69.17
2023-03-28T01:13:42.738Z,69.65
2023-03-28T01:18:38.218Z,70.19
2023-03-28T01:23:43.032Z,69.69
2023-03-28T01:28:57.232Z,69.85
2023-03-28T01:34:09.224Z,69.92
2023-03-28T01:39:13.909Z,70.00
2023-03-28T01:44:23.372Z,69.82
2023-03-28T01:49:25.726Z,70.14
2023-03-28T01:54:22.172Z,70.54
2023-03-28T01:59:17.317Z,70.86
2023-03-28T02:04:31.911Z,71.60
2023-03-28T02:09:27.312Z,71.84
2023-03-28T02:14:36.773Z,71.69
2023-03-28T02:20:09.182Z,71.98
2023-03-28T02:25:27.462Z,72.16
2023-03-28T02:30:30.493Z,72.98
2023-03-28T02:35:26.057Z,72.77
2023-03-28T02:40:31.070Z,71.19
2023-03-28T02:45:39.410Z,71.66
2023-03-28T02:50:39.060Z,71.58
2023-03-28T02:55:51.624Z,71.78
2023-03-28T03:01:15.170Z,71.19
2023-03-28T03:06:07.369Z,72.13
2023-03-28T03:11:04.029Z,72.56
2023-03-28T03:15:56.846Z,72.25
2023-03-28T03:20:54.088Z,73.56
2023-03-28T03:25:45.741Z,73.94
2023-03-28T03:30:45.712Z,73.72
2023-03-28T03:36:14.723Z,73.51
2023-03-28T03:41:07.774Z,73.55
2023-03-28T03:46:05.415Z,72.47
2023-03-28T03:50:57.672Z,73.60
2023-03-28T03:55:50.457Z,73.81
2023-03-28T04:00:41.549Z,74.18
2023-03-28T04:05:47.649Z,74.87
2023-03-28T04:10:46.167Z,74.69
2023-03-28T04:15:47.359Z,75.14
2023-03-28T04:20:56.282Z,75.82
2023-03-28T04:26:05.229Z,75.06
2023-03-28T04:31:19.210Z,75.17
2023-03-28T04:36:47.725Z,75.38
2023-03-28T04:42:05.032Z,75.46
2023-03-28T04:47:28.137Z,74.94
2023-03-28T04:52:41.724Z,75.63
2023-03-28T04:57:35.107Z,75.53
2023-03-28T05:02:34.802Z,75.63
2023-03-28T05:07:30.434Z,75.90
2023-03-28T05:12:22.098Z,75.90
2023-03-28T05:17:28.044Z,76.02
2023-03-28T05:22:36.907Z,76.29
2023-03-28T05:27:36.065Z,76.46
2023-03-28T05:32:28.440Z,74.20
2023-03-28T05:37:19.723Z,75.33
2023-03-28T05:42:24.497Z,75.30
2023-03-28T05:47:15.466Z,76.83
2023-03-28T05:52:22.456Z,73.39
2023-03-28T05:57:21.276Z,73.18
2023-03-28T06:02:20.815Z,73.83
2023-03-28T06:07:14.278Z,72.42
2023-03-28T06:12:10.676Z,73.87
2023-03-28T06:17:11.287Z,72.85
2023-03-28T06:22:21.056Z,73.41
2023-03-28T06:27:17.914Z,72.10
2023-03-28T06:32:09.573Z,73.47
2023-03-28T06:37:01.477Z,72.51
2023-03-28T06:42:09.151Z,73.19
2023-03-28T06:47:12.544Z,71.85
2023-03-28T06:52:03.941Z,70.11
2023-03-28T06:56:57.700Z,72.62
2023-03-28T07:01:51.989Z,69.25
2023-03-28T07:06:56.407Z,68.45
2023-03-28T07:11:47.575Z,71.08
2023-03-28T07:16:38.185Z,69.88
2023-03-28T07:21:34.189Z,71.03
2023-03-28T07:26:29.016Z,69.23
2023-03-28T07:31:24.518Z,67.63
2023-03-28T07:36:17.984Z,68.58
2023-03-28T07:41:16.713Z,71.69
2023-03-28T07:46:10.137Z,67.96
2023-03-28T07:51:04.454Z,69.42
2023-03-28T07:55:55.985Z,68.38
2023-03-28T08:01:08.695Z,71.10
2023-03-28T08:06:29.203Z,67.87
2023-03-28T08:11:28.549Z,67.64
2023-03-28T08:16:25.254Z,67.45
2023-03-28T08:21:20.247Z,68.03
2023-03-28T08:26:11.997Z,67.92
2023-03-28T08:31:14.861Z,68.55
2023-03-28T08:36:19.586Z,68.27
2023-03-28T08:41:22.407Z,67.85
2023-03-28T08:46:28.282Z,68.06
2023-03-28T08:51:26.573Z,67.14
2023-03-28T08:56:19.678Z,66.94
2023-03-28T09:01:16.848Z,65.38
2023-03-28T09:06:18.944Z,66.93
2023-03-28T09:11:20.662Z,67.75
2023-03-28T09:16:21.909Z,65.93
2023-03-28T09:21:35.152Z,65.82
2023-03-28T09:26:37.787Z,64.83
2023-03-28T09:31:42.689Z,63.81
2023-03-28T09:36:48.397Z,65.40
2023-03-28T09:41:55.417Z,56.45
2023-03-28T09:47:35.607Z,54.42
2023-03-28T09:52:40.070Z,51.71
2023-03-28T09:58:05.814Z,51.30
2023-03-28T10:03:25.044Z,50.57
2023-03-28T10:08:40.807Z,49.99
2023-03-28T10:13:49.524Z,51.10
2023-03-28T10:18:44.951Z,49.33
2023-03-28T10:24:03.272Z,48.82
2023-03-28T10:29:15.663Z,47.29
2023-03-28T10:34:09.703Z,46.60
2023-03-28T10:39:32.654Z,45.87
2023-03-28T10:45:05.228Z,44.21
2023-03-28T10:50:01.504Z,43.91
2023-03-28T10:55:10.164Z,44.70
2023-03-28T11:00:25.004Z,44.62
2023-03-28T11:05:37.886Z,41.52
2023-03-28T11:10:42.948Z,42.76
2023-03-28T11:15:51.498Z,43.37
2023-03-28T11:21:01.089Z,43.98
2023-03-28T11:26:08.964Z,44.82
2023-03-28T11:31:41.679Z,43.09
2023-03-28T11:36:49.778Z,42.57
2023-03-28T11:41:47.045Z,42.59
2023-03-28T11:46:53.160Z,42.97
2023-03-28T11:51:50.761Z,42.83
2023-03-28T11:56:55.665Z,41.83
2023-03-28T12:02:47.885Z,41.45
2023-03-28T12:07:47.680Z,40.99
2023-03-28T12:13:02.684Z,40.00
2023-03-28T12:18:24.528Z,40.53
2023-03-28T12:23:27.654Z,40.05
2023-03-28T12:29:01.004Z,39.60
2023-03-28T12:34:07.448Z,40.45
2023-03-28T12:39:36.054Z,40.84
2023-03-28T12:44:50.545Z,41.77
2023-03-28T12:49:53.063Z,42.88
2023-03-28T12:55:01.471Z,43.74
2023-03-28T13:00:29.620Z,42.31
2023-03-28T13:05:53.603Z,42.64
2023-03-28T13:10:50.735Z,42.10
2023-03-28T13:16:00.088Z,42.59
2023-03-28T13:20:55.612Z,43.37
2023-03-28T13:25:48.838Z,43.19
2023-03-28T13:30:40.228Z,43.52
2023-03-28T13:35:50.333Z,43.95
2023-03-28T13:40:52.024Z,45.49
2023-03-28T13:45:43.697Z,45.97
2023-03-28T13:50:37.770Z,45.04
2023-03-28T13:55:34.243Z,46.03
2023-03-28T14:00:31.984Z,46.63
2023-03-28T14:05:30.521Z,47.32
2023-03-28T14:10:31.263Z,47.77
2023-03-28T14:15:34.269Z,48.94
2023-03-28T14:20:26.770Z,49.30
2023-03-28T14:25:19.788Z,49.96
2023-03-28T14:30:23.034Z,50.69
2023-03-28T14:35:23.478Z,51.15
2023-03-28T14:40:34.356Z,50.62
2023-03-28T14:45:28.522Z,51.02
2023-03-28T14:50:24.956Z,51.47
2023-03-28T14:55:21.678Z,52.81
2023-03-28T15:00:19.652Z,55.24
2023-03-28T15:05:16.216Z,55.90
2023-03-28T15:10:14.259Z,56.79
2023-03-28T15:15:08.239Z,55.66
2023-03-28T15:20:06.220Z,56.14
2023-03-28T15:25:00.581Z,56.12
2023-03-28T15:29:58.415Z,56.74
2023-03-28T15:34:50.237Z,56.68
2023-03-28T15:39:42.102Z,56.86
2023-03-28T15:44:38.870Z,57.52
2023-03-28T15:49:43.340Z,57.59
2023-03-28T15:54:37.783Z,57.88
2023-03-28T15:59:36.203Z,56.54
2023-03-28T16:04:29.521Z,57.46
2023-03-28T16:09:24.853Z,61.28
2023-03-28T16:14:19.040Z,63.36
2023-03-28T16:19:36.768Z,64.54
2023-03-28T16:24:34.836Z,65.98
2023-03-28T16:29:28.943Z,66.47
2023-03-28T16:34:21.340Z,67.50
2023-03-28T16:39:14.146Z,66.34
2023-03-28T16:44:10.212Z,66.78
2023-03-28T16:49:01.502Z,68.33
2023-03-28T16:53:55.018Z,69.02
2023-03-28T16:58:46.712Z,70.27
2023-03-28T17:03:42.892Z,69.73
2023-03-28T17:08:34.679Z,70.08
2023-03-28T17:13:25.864Z,70.12
2023-03-28T17:18:17.110Z,68.54
2023-03-28T17:23:11.902Z,68.41
2023-03-28T17:28:04.354Z,68.72
2023-03-28T17:32:57.993Z,69.70
2023-03-28T17:37:53.436Z,69.99
2023-03-28T17:42:48.967Z,70.23
2023-03-28T17:47:40.270Z,70.12
2023-03-28T17:52:33.233Z,70.98
2023-03-28T17:57:25.726Z,71.63
2023-03-28T18:02:21.611Z,71.51
2023-03-28T18:07:24.890Z,71.95
2023-03-28T18:12:16.392Z,73.20
2023-03-28T18:17:08.639Z,73.78
2023-03-28T18:22:05.209Z,75.01
2023-03-28T18:26:56.932Z,76.75
2023-03-28T18:31:49.265Z,76.93
2023-03-28T18:36:42.088Z,75.51
2023-03-28T18:41:37.492Z,75.93
2023-03-28T18:46:30.307Z,75.55
2023-03-28T18:51:24.746Z,75.91
2023-03-28T18:56:17.424Z,76.06
2023-03-28T19:01:16.306Z,77.85
2023-03-28T19:06:08.226Z,78.71
2023-03-28T19:11:04.268Z,79.41
2023-03-28T19:16:04.068Z,81.52
2023-03-28T19:21:01.996Z,81.75
2023-03-28T19:25:53.677Z,81.81
2023-03-28T19:30:47.417Z,82.79
2023-03-28T19:35:39.087Z,83.17
2023-03-28T19:40:33.337Z,83.42
2023-03-28T19:45:26.779Z,83.70
2023-03-28T19:50:20.591Z,84.35
2023-03-28T19:55:16.189Z,84.15
2023-03-28T20:00:12.979Z,84.24
2023-03-28T20:05:03.453Z,84.55
2023-03-28T20:09:57.278Z,84.68
2023-03-28T20:14:49.077Z,84.61
2023-03-28T20:19:42.638Z,79.94
2023-03-28T20:24:35.453Z,79.90
2023-03-28T20:29:27.520Z,78.83
2023-03-28T20:34:18.376Z,77.47
2023-03-28T20:39:15.849Z,77.72
2023-03-28T20:44:10.378Z,76.29
2023-03-28T20:49:01.698Z,76.04
2023-03-28T20:53:54.458Z,75.04
2023-03-28T20:58:48.200Z,76.73
2023-03-28T21:03:57.550Z,77.13
2023-03-28T21:08:50.202Z,75.82
2023-03-28T21:13:42.528Z,75.97
2023-03-28T21:18:38.500Z,75.29
2023-03-28T21:23:35.546Z,74.80
2023-03-28T21:28:36.928Z,74.66
2023-03-28T21:33:27.913Z,74.55
2023-03-28T21:38:23.498Z,75.92
2023-03-28T21:43:13.549Z,74.01
2023-03-28T21:48:03.792Z,73.83
2023-03-28T21:52:58.095Z,74.99
2023-03-28T21:57:51.283Z,74.88
2023-03-28T22:02:42.509Z,73.72
2023-03-28T22:07:36.478Z,73.52
2023-03-28T22:12:31.398Z,75.04
2023-03-28T22:17:26.121Z,72.82
2023-03-28T22:22:18.587Z,72.45
2023-03-28T22:27:10.399Z,73.12
2023-03-28T22:32:00.788Z,72.38
2023-03-28T22:36:55.655Z,74.56
2023-03-28T22:41:47.897Z,72.26
2023-03-28T22:46:41.001Z,73.45
2023-03-28T22:51:31.383Z,72.83
2023-03-28T22:56:28.487Z,72.18
2023-03-28T23:01:19.264Z,73.21
2023-03-28T23:06:10.586Z,73.35
2023-03-28T23:11:01.903Z,73.16
2023-03-28T23:15:55.929Z,72.02
2023-03-28T23:20:46.008Z,72.38
2023-03-28T23:25:36.685Z,71.73
2023-03-28T23:30:27.619Z,71.86
2023-03-28T23:35:20.705Z,71.00
2023-03-28T23:40:18.063Z,71.86
2023-03-28T23:45:09.385Z,71.45
2023-03-28T23:49:59.805Z,71.63
2023-03-28T23:54:52.357Z,71.16
2023-03-28T23:59:42.321Z,70.43
